createdAt,value
2019-01-29T00:00:15.567Z,3.00
2019-01-29T00:02:47.011Z,3.70
2019-01-29T00:05:16.425Z,3.85
2019-01-29T00:07:45.063Z,3.43
2019-01-29T00:10:16.210Z,3.80
2019-01-29T00:12:44.567Z,3.25
2019-01-29T00:15:13.679Z,3.22
2019-01-29T00:17:42.975Z,3.43
2019-01-29T00:20:12.816Z,3.30
2019-01-29T00:22:41.127Z,3.58
2019-01-29T00:25:10.720Z,3.30
2019-01-29T00:27:39.051Z,3.53
2019-01-29T00:30:10.397Z,3.00
2019-01-29T00:32:38.718Z,3.57
2019-01-29T00:35:07.225Z,2.90
2019-01-29T00:37:35.543Z,3.97
2019-01-29T00:40:06.583Z,3.37
2019-01-29T00:42:34.977Z,2.93
2019-01-29T00:45:06.278Z,3.10
2019-01-29T00:47:34.674Z,3.27
2019-01-29T00:50:04.273Z,3.53
2019-01-29T00:52:32.598Z,3.45
2019-01-29T00:55:00.925Z,3.00
2019-01-29T00:57:29.237Z,2.80
2019-01-29T00:59:57.634Z,3.40
2019-01-29T01:02:27.634Z,3.53
2019-01-29T01:04:55.949Z,2.80
2019-01-29T01:07:24.346Z,3.20
2019-01-29T01:09:57.343Z,3.50
2019-01-29T01:12:23.235Z,3.00
2019-01-29T01:14:51.626Z,3.10
2019-01-29T01:17:19.920Z,3.70
2019-01-29T01:19:48.336Z,2.47
2019-01-29T01:22:16.740Z,3.30
2019-01-29T01:24:45.181Z,3.10
2019-01-29T01:27:13.605Z,4.17
2019-01-29T01:29:41.965Z,3.70
2019-01-29T01:32:10.485Z,3.97
2019-01-29T01:34:38.831Z,4.67
2019-01-29T01:37:10.492Z,3.30
2019-01-29T01:39:38.845Z,2.90
2019-01-29T01:42:07.224Z,3.30
2019-01-29T01:44:35.552Z,3.20
2019-01-29T01:47:04.010Z,2.50
2019-01-29T01:49:32.347Z,2.90
2019-01-29T01:52:00.665Z,2.50
2019-01-29T01:54:29.016Z,2.70
2019-01-29T01:56:58.001Z,2.60
2019-01-29T01:59:26.376Z,2.53
2019-01-29T02:01:54.685Z,2.80
2019-01-29T02:04:23.022Z,2.40
2019-01-29T02:06:51.341Z,3.10
2019-01-29T02:09:19.720Z,2.53
2019-01-29T02:11:49.023Z,2.90
2019-01-29T02:14:17.335Z,2.50
2019-01-29T02:16:45.682Z,2.47
2019-01-29T02:19:13.998Z,3.03
2019-01-29T02:21:42.324Z,3.00
2019-01-29T02:24:10.699Z,2.60
2019-01-29T02:26:39.034Z,2.58
2019-01-29T02:29:08.281Z,2.37
2019-01-29T02:31:36.747Z,2.50
2019-01-29T02:34:05.137Z,2.47
2019-01-29T02:36:33.508Z,2.03
2019-01-29T02:39:01.935Z,2.53
2019-01-29T02:41:30.348Z,2.17
2019-01-29T02:43:58.646Z,1.90
2019-01-29T02:46:26.995Z,1.90
2019-01-29T02:48:55.295Z,2.33
2019-01-29T02:51:23.654Z,3.00
2019-01-29T02:53:52.408Z,2.00
2019-01-29T02:56:21.828Z,2.10
2019-01-29T02:58:50.189Z,2.10
2019-01-29T03:01:18.607Z,1.97
2019-01-29T03:03:46.955Z,1.98
2019-01-29T03:06:15.373Z,2.73
2019-01-29T03:08:43.670Z,2.50
2019-01-29T03:11:12.503Z,2.50
2019-01-29T03:13:40.805Z,2.20
2019-01-29T03:16:09.236Z,2.33
2019-01-29T03:18:37.551Z,2.60
2019-01-29T03:21:05.961Z,2.50
2019-01-29T03:23:34.318Z,2.40
2019-01-29T03:26:02.644Z,2.30
2019-01-29T03:28:31.036Z,2.40
2019-01-29T03:30:59.473Z,2.30
2019-01-29T03:33:27.974Z,1.90
2019-01-29T03:35:56.411Z,2.23
2019-01-29T03:38:24.725Z,2.60
2019-01-29T03:40:53.108Z,2.12
2019-01-29T03:43:21.489Z,1.95
2019-01-29T03:45:49.833Z,2.53
2019-01-29T03:48:18.329Z,2.13
2019-01-29T03:50:46.753Z,1.70
2019-01-29T03:53:15.145Z,1.92
2019-01-29T03:55:43.686Z,1.97
2019-01-29T03:58:12.593Z,2.40
2019-01-29T04:00:40.946Z,1.82
2019-01-29T04:03:09.422Z,2.00
2019-01-29T04:05:37.827Z,1.90
2019-01-29T04:08:06.295Z,2.00
2019-01-29T04:10:34.660Z,2.10
2019-01-29T04:13:03.082Z,1.90
2019-01-29T04:15:31.508Z,1.70
2019-01-29T04:17:59.892Z,1.90
2019-01-29T04:20:28.307Z,1.83
2019-01-29T04:22:56.634Z,1.63
2019-01-29T04:25:25.162Z,1.67
2019-01-29T04:27:53.657Z,1.87
2019-01-29T04:30:22.825Z,1.70
2019-01-29T04:32:53.423Z,1.50
2019-01-29T04:35:22.081Z,2.03
2019-01-29T04:37:50.479Z,1.63
2019-01-29T04:40:19.707Z,1.57
2019-01-29T04:42:48.099Z,1.90
2019-01-29T04:45:17.761Z,1.90
2019-01-29T04:47:46.146Z,1.60
2019-01-29T04:50:15.981Z,1.70
2019-01-29T04:52:44.463Z,1.43
2019-01-29T04:55:15.382Z,1.60
2019-01-29T04:57:43.848Z,2.00
2019-01-29T05:00:15.023Z,1.90
2019-01-29T05:02:43.418Z,1.63
2019-01-29T05:05:13.471Z,2.13
2019-01-29T05:07:41.994Z,1.93
2019-01-29T05:10:12.352Z,2.00
2019-01-29T05:12:40.751Z,1.90
2019-01-29T05:15:13.132Z,3.67
2019-01-29T05:17:41.674Z,6.57
2019-01-29T05:20:12.889Z,3.05
2019-01-29T05:22:41.164Z,3.70
2019-01-29T05:25:11.393Z,3.10
2019-01-29T05:27:39.887Z,3.53
2019-01-29T05:30:13.227Z,2.93
2019-01-29T05:32:41.574Z,3.47
2019-01-29T05:35:11.616Z,2.65
2019-01-29T05:37:40.044Z,2.60
2019-01-29T05:40:11.248Z,3.17
2019-01-29T05:42:39.643Z,2.57
2019-01-29T05:45:11.836Z,3.10
2019-01-29T05:47:40.213Z,2.00
2019-01-29T05:50:12.315Z,2.07
2019-01-29T05:52:40.738Z,3.20
2019-01-29T05:55:11.022Z,2.10
2019-01-29T05:57:39.392Z,2.80
2019-01-29T06:00:13.651Z,2.63
2019-01-29T06:02:41.941Z,2.33
2019-01-29T06:05:10.744Z,2.30
2019-01-29T06:07:39.050Z,2.80
2019-01-29T06:10:11.709Z,3.57
2019-01-29T06:12:40.014Z,3.40
2019-01-29T06:15:12.840Z,3.73
2019-01-29T06:17:41.227Z,8.43
2019-01-29T06:20:14.382Z,9.40
2019-01-29T06:22:42.710Z,4.80
2019-01-29T06:25:11.506Z,2.63
2019-01-29T06:27:39.806Z,3.17
2019-01-29T06:30:10.421Z,3.10
2019-01-29T06:32:38.753Z,3.17
2019-01-29T06:35:10.280Z,3.10
2019-01-29T06:37:38.753Z,4.00
2019-01-29T06:40:11.466Z,4.37
2019-01-29T06:42:39.773Z,3.75
2019-01-29T06:45:10.899Z,3.10
2019-01-29T06:47:39.285Z,2.80
2019-01-29T06:50:10.030Z,2.43
2019-01-29T06:52:38.377Z,3.10
2019-01-29T06:55:10.614Z,4.17
2019-01-29T06:57:39.026Z,3.60
2019-01-29T07:00:10.874Z,2.62
2019-01-29T07:02:39.220Z,2.83
2019-01-29T07:05:07.973Z,3.07
2019-01-29T07:07:36.324Z,2.43
2019-01-29T07:10:07.320Z,2.90
2019-01-29T07:12:35.721Z,2.80
2019-01-29T07:15:05.533Z,2.60
2019-01-29T07:17:33.864Z,2.30
2019-01-29T07:20:02.244Z,2.83
2019-01-29T07:22:30.574Z,2.73
2019-01-29T07:24:58.996Z,3.17
2019-01-29T07:27:27.377Z,3.17
2019-01-29T07:29:55.697Z,2.90
2019-01-29T07:32:24.353Z,2.75
2019-01-29T07:34:52.655Z,2.87
2019-01-29T07:37:22.054Z,3.95
2019-01-29T07:39:50.729Z,3.23
2019-01-29T07:42:19.029Z,2.80
2019-01-29T07:44:47.384Z,2.35
2019-01-29T07:47:15.703Z,2.50
2019-01-29T07:49:44.010Z,2.30
2019-01-29T07:52:12.933Z,2.70
2019-01-29T07:54:41.312Z,3.93
2019-01-29T07:57:09.789Z,2.97
2019-01-29T07:59:38.137Z,2.20
2019-01-29T08:02:06.609Z,2.60
2019-01-29T08:04:34.961Z,2.50
2019-01-29T08:07:03.811Z,2.90
2019-01-29T08:09:32.135Z,2.50
2019-01-29T08:12:00.506Z,2.73
2019-01-29T08:14:28.863Z,3.00
2019-01-29T08:16:57.244Z,2.50
2019-01-29T08:19:25.571Z,2.40
2019-01-29T08:21:53.883Z,2.60
2019-01-29T08:24:22.331Z,2.50
2019-01-29T08:26:50.748Z,2.40
2019-01-29T08:29:19.129Z,2.40
2019-01-29T08:31:47.433Z,2.87
2019-01-29T08:34:15.884Z,2.30
2019-01-29T08:36:44.209Z,2.40
2019-01-29T08:39:12.528Z,3.00
2019-01-29T08:41:40.857Z,2.17
2019-01-29T08:44:10.483Z,2.60
2019-01-29T08:46:38.808Z,3.25
2019-01-29T08:49:08.518Z,2.77
2019-01-29T08:51:36.829Z,3.20
2019-01-29T08:54:05.255Z,3.13
2019-01-29T08:56:33.586Z,2.50
2019-01-29T08:59:01.928Z,2.60
2019-01-29T09:01:30.328Z,2.73
2019-01-29T09:03:58.694Z,4.83
2019-01-29T09:06:27.410Z,5.15
2019-01-29T09:08:55.820Z,3.37
2019-01-29T09:11:24.207Z,4.53
2019-01-29T09:13:52.505Z,5.75
2019-01-29T09:16:20.871Z,4.50
2019-01-29T09:18:49.192Z,4.33
2019-01-29T09:21:17.530Z,2.98
2019-01-29T09:23:45.856Z,3.47
2019-01-29T09:26:14.173Z,3.00
2019-01-29T09:28:42.487Z,2.80
2019-01-29T09:31:10.830Z,2.50
2019-01-29T09:33:39.253Z,3.05
2019-01-29T09:36:07.899Z,3.20
2019-01-29T09:38:36.216Z,2.43
2019-01-29T09:41:04.649Z,2.80
2019-01-29T09:43:33.016Z,3.57
2019-01-29T09:46:01.445Z,3.07
2019-01-29T09:48:29.774Z,3.17
2019-01-29T09:50:58.097Z,2.80
2019-01-29T09:53:26.471Z,3.27
2019-01-29T09:55:54.865Z,3.65
2019-01-29T09:58:23.285Z,2.80
2019-01-29T10:00:51.611Z,2.70
2019-01-29T10:03:19.933Z,3.25
2019-01-29T10:05:48.290Z,3.13
2019-01-29T10:08:16.727Z,3.00
2019-01-29T10:10:45.108Z,3.40
2019-01-29T10:13:13.532Z,3.10
2019-01-29T10:15:42.100Z,3.83
2019-01-29T10:18:10.493Z,2.87
2019-01-29T10:20:39.114Z,3.20
2019-01-29T10:23:07.667Z,3.20
2019-01-29T10:25:37.796Z,3.03
2019-01-29T10:28:06.915Z,3.10
2019-01-29T10:30:35.231Z,3.77
2019-01-29T10:33:03.766Z,3.20
2019-01-29T10:35:32.197Z,3.83
2019-01-29T10:38:00.589Z,3.77
2019-01-29T10:40:29.523Z,3.70
2019-01-29T10:42:58.293Z,3.83
2019-01-29T10:45:29.058Z,3.60
2019-01-29T10:47:57.455Z,3.62
2019-01-29T10:50:28.844Z,3.53
2019-01-29T10:52:57.325Z,3.60
2019-01-29T10:55:25.889Z,4.05
2019-01-29T10:57:54.363Z,3.97
2019-01-29T11:00:26.786Z,3.85
2019-01-29T11:02:55.244Z,3.83
2019-01-29T11:05:23.834Z,3.90
2019-01-29T11:07:52.229Z,3.90
2019-01-29T11:10:21.097Z,3.73
2019-01-29T11:12:49.511Z,4.22
2019-01-29T11:15:22.420Z,4.73
2019-01-29T11:17:50.874Z,4.30
2019-01-29T11:20:19.505Z,4.57
2019-01-29T11:22:48.108Z,4.03
2019-01-29T11:25:19.714Z,4.87
2019-01-29T11:27:48.178Z,3.73
2019-01-29T11:30:18.503Z,3.90
2019-01-29T11:32:46.906Z,5.67
2019-01-29T11:35:15.349Z,4.53
2019-01-29T11:37:43.773Z,4.07
2019-01-29T11:40:15.641Z,5.10
2019-01-29T11:42:44.106Z,4.90
2019-01-29T11:45:17.037Z,5.00
2019-01-29T11:47:45.483Z,4.80
2019-01-29T11:50:13.927Z,5.20
2019-01-29T11:52:42.272Z,4.33
2019-01-29T11:55:11.173Z,4.60
2019-01-29T11:57:39.500Z,4.60
2019-01-29T12:00:13.531Z,4.00
2019-01-29T12:02:41.930Z,4.60
2019-01-29T12:05:10.746Z,4.97
2019-01-29T12:07:39.080Z,4.30
2019-01-29T12:10:10.583Z,4.80
2019-01-29T12:12:39.056Z,4.50
2019-01-29T12:15:10.901Z,4.30
2019-01-29T12:17:39.234Z,3.40
2019-01-29T12:20:10.279Z,3.83
2019-01-29T12:22:38.820Z,4.00
2019-01-29T12:25:07.870Z,4.00
2019-01-29T12:27:36.200Z,4.58
2019-01-29T12:30:08.292Z,4.00
2019-01-29T12:32:36.746Z,5.20
2019-01-29T12:35:08.212Z,4.40
2019-01-29T12:37:36.556Z,4.33
2019-01-29T12:40:07.252Z,4.27
2019-01-29T12:42:35.923Z,4.63
2019-01-29T12:45:08.089Z,4.20
2019-01-29T12:47:36.583Z,4.83
2019-01-29T12:50:10.818Z,4.70
2019-01-29T12:52:41.164Z,4.90
2019-01-29T12:55:11.347Z,5.20
2019-01-29T12:57:40.419Z,6.20
2019-01-29T13:00:14.256Z,6.17
2019-01-29T13:02:42.606Z,4.73
2019-01-29T13:05:13.015Z,5.00
2019-01-29T13:07:41.684Z,4.63
2019-01-29T13:10:15.173Z,5.10
2019-01-29T13:12:43.474Z,4.53
2019-01-29T13:15:15.405Z,5.42
2019-01-29T13:17:43.724Z,4.97
2019-01-29T13:20:12.190Z,4.80
2019-01-29T13:22:40.583Z,5.37
2019-01-29T13:25:11.455Z,4.80
2019-01-29T13:27:39.778Z,4.93
2019-01-29T13:30:37.013Z,5.80
2019-01-29T13:33:07.742Z,4.62
2019-01-29T13:35:37.320Z,4.50
2019-01-29T13:38:06.387Z,3.97
2019-01-29T13:40:34.865Z,4.57
2019-01-29T13:43:03.264Z,3.85
2019-01-29T13:45:31.682Z,4.33
2019-01-29T13:48:00.573Z,3.80
2019-01-29T13:50:32.487Z,4.45
2019-01-29T13:53:00.942Z,3.70
2019-01-29T13:55:29.393Z,4.23
2019-01-29T13:57:58.161Z,4.20
2019-01-29T14:00:29.040Z,4.00
2019-01-29T14:02:57.494Z,5.10
2019-01-29T14:05:26.015Z,3.83
2019-01-29T14:07:54.363Z,4.83
2019-01-29T14:10:22.938Z,4.00
2019-01-29T14:12:51.417Z,3.80
2019-01-29T14:15:23.228Z,4.73
2019-01-29T14:17:53.157Z,4.85
2019-01-29T14:20:21.511Z,4.20
2019-01-29T14:22:49.845Z,4.50
2019-01-29T14:25:18.217Z,4.70
2019-01-29T14:27:46.577Z,4.70
2019-01-29T14:30:17.973Z,4.53
2019-01-29T14:32:46.367Z,4.85
2019-01-29T14:35:16.168Z,5.43
2019-01-29T14:37:50.934Z,6.30
2019-01-29T14:40:19.588Z,5.87
2019-01-29T14:42:47.930Z,5.50
2019-01-29T14:45:18.419Z,5.27
2019-01-29T14:47:46.742Z,5.60
2019-01-29T14:50:16.158Z,5.22
2019-01-29T14:52:44.491Z,6.30
2019-01-29T14:55:13.126Z,5.37
2019-01-29T14:57:41.449Z,6.08
2019-01-29T15:00:13.857Z,5.90
2019-01-29T15:02:42.272Z,6.50
2019-01-29T15:05:11.363Z,5.33
2019-01-29T15:07:39.723Z,5.60
2019-01-29T15:10:13.885Z,5.77
2019-01-29T15:12:42.382Z,5.17
2019-01-29T15:15:14.272Z,5.70
2019-01-29T15:17:44.654Z,5.70
2019-01-29T15:20:13.142Z,6.47
2019-01-29T15:22:42.512Z,5.17
2019-01-29T15:25:12.043Z,5.47
2019-01-29T15:27:40.629Z,5.60
2019-01-29T15:30:13.005Z,5.62
2019-01-29T15:32:41.406Z,5.70
2019-01-29T15:35:10.610Z,6.00
2019-01-29T15:37:38.926Z,4.73
2019-01-29T15:40:12.743Z,5.43
2019-01-29T15:42:41.233Z,5.60
2019-01-29T15:45:13.385Z,4.93
2019-01-29T15:47:41.863Z,4.53
2019-01-29T15:50:11.997Z,5.50
2019-01-29T15:52:48.314Z,5.03
2019-01-29T15:55:13.569Z,5.43
2019-01-29T15:57:43.020Z,4.53
2019-01-29T16:00:17.970Z,5.47
2019-01-29T16:02:46.286Z,5.03
2019-01-29T16:05:17.097Z,4.80
2019-01-29T16:07:45.443Z,5.43
2019-01-29T16:10:17.758Z,4.70
2019-01-29T16:12:46.070Z,4.70
2019-01-29T16:15:17.930Z,5.62
2019-01-29T16:17:46.259Z,5.47
2019-01-29T16:20:17.112Z,4.80
2019-01-29T16:22:45.525Z,5.13
2019-01-29T16:25:16.883Z,5.07
2019-01-29T16:27:45.279Z,4.80
2019-01-29T16:30:17.872Z,6.00
2019-01-29T16:32:46.373Z,5.47
2019-01-29T16:35:18.123Z,5.93
2019-01-29T16:37:46.435Z,5.50
2019-01-29T16:40:18.118Z,5.30
2019-01-29T16:42:46.494Z,6.28
2019-01-29T16:45:18.945Z,6.03
2019-01-29T16:47:47.413Z,7.17
2019-01-29T16:50:18.635Z,5.30
2019-01-29T16:52:47.107Z,7.00
2019-01-29T16:55:17.745Z,6.15
2019-01-29T16:57:46.074Z,5.70
2019-01-29T17:00:17.679Z,6.83
2019-01-29T17:02:46.136Z,6.43
2019-01-29T17:05:14.585Z,6.83
2019-01-29T17:07:43.005Z,6.03
2019-01-29T17:10:16.570Z,6.07
2019-01-29T17:12:45.028Z,7.00
2019-01-29T17:15:17.105Z,5.90
2019-01-29T17:17:45.444Z,6.40
2019-01-29T17:20:17.401Z,4.67
2019-01-29T17:22:45.980Z,4.07
2019-01-29T17:25:14.708Z,3.95
2019-01-29T17:27:43.236Z,4.53
2019-01-29T17:30:17.419Z,4.30
2019-01-29T17:32:45.753Z,3.70
2019-01-29T17:35:14.785Z,5.67
2019-01-29T17:37:43.119Z,5.03
2019-01-29T17:40:14.956Z,5.50
2019-01-29T17:42:43.334Z,5.85
2019-01-29T17:45:14.626Z,5.70
2019-01-29T17:47:42.951Z,6.50
2019-01-29T17:50:15.372Z,5.93
2019-01-29T17:52:43.858Z,4.93
2019-01-29T17:55:13.603Z,5.70
2019-01-29T17:57:50.553Z,5.70
2019-01-29T18:00:15.951Z,5.17
2019-01-29T18:02:44.364Z,5.62
2019-01-29T18:05:14.021Z,4.77
2019-01-29T18:07:42.782Z,5.55
2019-01-29T18:10:15.242Z,6.27
2019-01-29T18:12:43.708Z,6.00
2019-01-29T18:15:14.221Z,6.50
2019-01-29T18:17:43.464Z,5.70
2019-01-29T18:20:12.808Z,6.27
2019-01-29T18:22:41.140Z,6.17
2019-01-29T18:25:12.074Z,6.70
2019-01-29T18:27:42.027Z,6.60
2019-01-29T18:30:15.587Z,6.40
2019-01-29T18:32:43.962Z,6.07
2019-01-29T18:35:13.411Z,6.00
2019-01-29T18:37:42.697Z,5.65
2019-01-29T18:40:16.691Z,5.63
2019-01-29T18:42:45.088Z,6.13
2019-01-29T18:45:14.173Z,6.43
2019-01-29T18:47:42.510Z,6.27
2019-01-29T18:50:14.745Z,6.90
2019-01-29T18:52:43.920Z,5.67
2019-01-29T18:55:13.522Z,5.67
2019-01-29T18:57:41.966Z,6.53
2019-01-29T19:00:14.889Z,5.83
2019-01-29T19:02:46.280Z,6.37
2019-01-29T19:05:15.153Z,6.27
2019-01-29T19:07:44.903Z,6.93
2019-01-29T19:10:16.261Z,6.80
2019-01-29T19:12:44.963Z,7.27
2019-01-29T19:15:16.415Z,7.17
2019-01-29T19:17:44.916Z,6.97
2019-01-29T19:20:17.805Z,7.37
2019-01-29T19:22:46.294Z,6.67
2019-01-29T19:25:16.054Z,6.33
2019-01-29T19:27:44.548Z,6.93
2019-01-29T19:30:17.402Z,6.67
2019-01-29T19:32:45.756Z,6.83
2019-01-29T19:35:15.032Z,6.92
2019-01-29T19:37:43.355Z,7.30
2019-01-29T19:40:14.675Z,7.27
2019-01-29T19:42:43.149Z,7.20
2019-01-29T19:45:16.767Z,7.33
2019-01-29T19:47:45.141Z,6.08
2019-01-29T19:50:18.589Z,7.13
2019-01-29T19:52:46.977Z,7.70
2019-01-29T19:55:15.450Z,7.13
2019-01-29T19:57:44.069Z,7.80
2019-01-29T20:00:18.868Z,7.73
2019-01-29T20:02:47.186Z,6.83
2019-01-29T20:05:15.534Z,8.20
2019-01-29T20:07:43.982Z,6.93
2019-01-29T20:10:15.166Z,8.10
2019-01-29T20:12:43.482Z,7.40
2019-01-29T20:15:13.570Z,7.30
2019-01-29T20:17:41.950Z,9.37
2019-01-29T20:20:15.380Z,8.63
2019-01-29T20:22:43.825Z,8.57
2019-01-29T20:25:13.454Z,8.88
2019-01-29T20:27:41.762Z,7.85
2019-01-29T20:30:13.851Z,7.60
2019-01-29T20:32:42.287Z,8.67
2019-01-29T20:35:10.983Z,7.85
2019-01-29T20:37:39.533Z,8.37
2019-01-29T20:40:13.860Z,8.30
2019-01-29T20:42:42.242Z,8.23
2019-01-29T20:45:12.267Z,7.37
2019-01-29T20:47:40.768Z,7.67
2019-01-29T20:50:12.986Z,8.30
2019-01-29T20:52:41.324Z,9.00
2019-01-29T20:55:11.624Z,8.28
2019-01-29T20:57:40.047Z,8.90
2019-01-29T21:00:13.757Z,8.37
2019-01-29T21:02:42.155Z,7.53
2019-01-29T21:05:10.943Z,7.25
2019-01-29T21:07:39.262Z,7.92
2019-01-29T21:10:13.036Z,9.67
2019-01-29T21:12:41.421Z,8.40
2019-01-29T21:15:11.467Z,8.00
2019-01-29T21:17:39.869Z,8.20
2019-01-29T21:20:13.526Z,8.40
2019-01-29T21:22:42.009Z,7.83
2019-01-29T21:25:11.769Z,7.73
2019-01-29T21:27:40.079Z,8.63
2019-01-29T21:30:11.996Z,8.90
2019-01-29T21:32:40.309Z,8.70
2019-01-29T21:35:08.965Z,8.80
2019-01-29T21:37:37.434Z,8.95
2019-01-29T21:40:08.811Z,9.70
2019-01-29T21:42:37.099Z,7.97
2019-01-29T21:45:07.676Z,8.57
2019-01-29T21:47:36.089Z,8.57
2019-01-29T21:50:11.634Z,7.87
2019-01-29T21:52:39.912Z,8.70
2019-01-29T21:55:11.940Z,7.67
2019-01-29T21:57:40.554Z,8.20
2019-01-29T22:00:14.633Z,9.50
2019-01-29T22:02:42.944Z,10.40
2019-01-29T22:05:13.829Z,8.20
2019-01-29T22:07:42.714Z,8.47
2019-01-29T22:10:15.646Z,8.53
2019-01-29T22:12:43.953Z,8.90
2019-01-29T22:15:15.577Z,8.50
2019-01-29T22:17:44.497Z,8.07
2019-01-29T22:20:20.249Z,8.65
2019-01-29T22:22:50.356Z,8.43
2019-01-29T22:25:22.018Z,8.60
2019-01-29T22:27:51.270Z,8.10
2019-01-29T22:30:23.611Z,8.40
2019-01-29T22:32:52.636Z,8.13
2019-01-29T22:35:21.511Z,7.60
2019-01-29T22:37:50.006Z,9.53
2019-01-29T22:40:22.605Z,7.65
2019-01-29T22:42:51.093Z,7.30
2019-01-29T22:45:20.286Z,7.73
2019-01-29T22:47:48.794Z,8.83
2019-01-29T22:50:22.225Z,7.73
2019-01-29T22:52:51.638Z,8.30
2019-01-29T22:55:20.672Z,7.83
2019-01-29T22:57:50.670Z,6.97
2019-01-29T23:00:22.839Z,7.87
2019-01-29T23:02:52.450Z,7.40
2019-01-29T23:05:22.810Z,8.20
2019-01-29T23:07:53.822Z,6.83
2019-01-29T23:10:23.248Z,7.13
2019-01-29T23:12:51.619Z,7.63
2019-01-29T23:15:20.226Z,6.93
2019-01-29T23:17:48.617Z,6.63
2019-01-29T23:20:17.787Z,6.87
2019-01-29T23:22:46.200Z,6.77
2019-01-29T23:25:14.854Z,6.90
2019-01-29T23:27:43.233Z,6.00
2019-01-29T23:30:16.323Z,8.57
2019-01-29T23:32:44.736Z,7.33
2019-01-29T23:35:14.084Z,6.83
2019-01-29T23:37:42.827Z,7.10
2019-01-29T23:40:13.067Z,6.33
2019-01-29T23:42:41.420Z,6.80
2019-01-29T23:45:12.161Z,7.10
2019-01-29T23:47:40.536Z,6.53
2019-01-29T23:50:11.310Z,6.90
2019-01-29T23:52:39.769Z,6.53
2019-01-29T23:55:08.738Z,6.00
2019-01-29T23:57:37.157Z,7.13
